Grand.pioneer — HOBN — position and weather

sailwx.info

Track history (hours):
 
Tides and Currents Weather Stations Pressure Air Temp Water Temp Dewpoint Dewpoint Depression Visibility Wind Speed Wind Dir Waves Ship Positions

Grand.pioneer

Last reported at 2017-Sep-21 23:37 UTC. Time now 2017-Sep-25 00:37 UTC.
Position N 42°09' W 069°56'.

Length 200 m; draft 8.5 m.

Type: Cargo ship. MMSI: 352935000.

Date/timePositionNaut miles runAvg speedWind from/ knotsBaromVisibWave heightAir tempDewpointWater temp
2017-Sep-21 23:37N 42°09' W 069°56'2 9.6
2017-Sep-21 23:25N 42°10' W 069°57'410.2
2017-Sep-21 23:00N 42°14' W 069°60'5 9.8
2017-Sep-21 22:30N 42°17' W 070°05'611.2
2017-Sep-21 22:00N 42°17' W 070°13'612.5
2017-Sep-21 21:30N 42°18' W 070°21'612.3
2017-Sep-21 21:00N 42°19' W 070°29'612.8
2017-Sep-21 20:30N 42°19' W 070°38'713.3
2017-Sep-21 20:00N 42°22' W 070°46'5 9.8
2017-Sep-21 19:30N 42°25' W 070°52'3 6.4
2017-Sep-21 19:00N 42°22' W 070°55'5 9.8
2017-Sep-21 18:31N 42°21' W 071°01'3 6.2
2017-Sep-21 18:00N 42°23' W 071°03'0 0.1
2017-Sep-21 17:28N 42°23' W 071°03'0 0.0
2017-Sep-21 16:58N 42°23' W 071°03'0 0.0
2017-Sep-21 16:29N 42°23' W 071°03'0 0.0
2017-Sep-21 15:59N 42°23' W 071°03'0 0.0
2017-Sep-21 15:28N 42°23' W 071°03'0 0.0
2017-Sep-21 14:59N 42°23' W 071°03'0 0.0
2017-Sep-21 14:29N 42°23' W 071°03'0 0.0
2017-Sep-21 13:58N 42°23' W 071°03'0 0.0
2017-Sep-21 13:29N 42°23' W 071°03'0 0.0
2017-Sep-21 12:59N 42°23' W 071°03'0 0.0
2017-Sep-21 12:29N 42°23' W 071°03'0 0.0
2017-Sep-21 11:59N 42°23' W 071°03'0 0.0
2017-Sep-21 11:28N 42°23' W 071°03'0 0.0
2017-Sep-21 10:58N 42°23' W 071°03'0 0.0
2017-Sep-21 10:30N 42°23' W 071°03'0 0.2
2017-Sep-21 10:01N 42°23' W 071°03'3 5.2
2017-Sep-21 09:31N 42°21' W 071°01'4 7.9
2017-Sep-21 09:00N 42°21' W 070°56'5 9.3
2017-Sep-21 08:30N 42°23' W 070°51'5 9.5
2017-Sep-21 08:00N 42°23' W 070°44'510.4
2017-Sep-21 07:30N 42°22' W 070°37'4 7.2
2017-Sep-21 07:00N 42°22' W 070°32'3 6.8
2017-Sep-21 06:30N 42°21' W 070°28'4 7.4
2017-Sep-21 06:00N 42°21' W 070°23'3 6.0
2017-Sep-21 05:30N 42°21' W 070°19'2 4.5
2017-Sep-21 05:00N 42°21' W 070°16'3 6.4
2017-Sep-21 04:30N 42°20' W 070°11'4 7.1
2017-Sep-21 04:00N 42°20' W 070°07'5 9.7
2017-Sep-21 03:30N 42°19' W 070°00'199 7.8
2017-Sep-20 01:47N 40°25' W 073°39'513.9
2017-Sep-20 01:27N 40°26' W 073°45'4 8.6
2017-Sep-20 01:00N 40°27' W 073°50'713.5
2017-Sep-20 00:30N 40°30' W 073°57'713.3
2017-Sep-20 00:01N 40°36' W 074°02'4 8.8
2017-Sep-19 23:31N 40°39' W 074°06'2 3.8
2017-Sep-19 23:00N 40°40' W 074°08'2 3.3
2017-Sep-19 22:31N 40°42' W 074°09'0 0.0
2017-Sep-19 21:58N 40°42' W 074°09'0 0.0
2017-Sep-19 21:28N 40°42' W 074°09'0 0.0
2017-Sep-19 20:58N 40°42' W 074°09'0 0.0
2017-Sep-19 20:28N 40°42' W 074°09'0 0.0
2017-Sep-19 19:58N 40°42' W 074°09'0 0.0
2017-Sep-19 19:28N 40°42' W 074°09'0 0.0
2017-Sep-19 18:58N 40°42' W 074°09'0 0.0
2017-Sep-19 18:28N 40°42' W 074°09'0 0.0
2017-Sep-19 17:58N 40°42' W 074°09'0 0.0
2017-Sep-19 17:28N 40°42' W 074°09'0 0.0
2017-Sep-19 16:58N 40°42' W 074°09'0 0.0
2017-Sep-19 16:25N 40°42' W 074°09'0 0.0
2017-Sep-19 15:58N 40°42' W 074°09'0 0.0
2017-Sep-19 15:28N 40°42' W 074°09'0 0.0
2017-Sep-19 14:58N 40°42' W 074°09'0 0.0
2017-Sep-19 14:28N 40°42' W 074°09'0 0.0
2017-Sep-19 13:58N 40°42' W 074°09'0 0.0
2017-Sep-19 13:28N 40°42' W 074°09'0 0.0
2017-Sep-19 12:58N 40°42' W 074°09'0 0.0
2017-Sep-19 12:28N 40°42' W 074°09'0 0.0
2017-Sep-19 11:58N 40°42' W 074°09'0 0.0
2017-Sep-19 11:28N 40°42' W 074°09'0 0.0
2017-Sep-19 10:58N 40°42' W 074°09'0 0.0
2017-Sep-19 10:28N 40°42' W 074°09'0 0.0
2017-Sep-19 09:58N 40°42' W 074°09'0 0.0
2017-Sep-19 09:28N 40°42' W 074°09'0 0.0
2017-Sep-19 08:58N 40°42' W 074°09'0 0.0
2017-Sep-19 08:28N 40°42' W 074°09'0 0.0
2017-Sep-19 07:58N 40°42' W 074°09'0 0.0
2017-Sep-19 07:28N 40°42' W 074°09'0 0.0
2017-Sep-19 06:58N 40°42' W 074°09'0 0.0
2017-Sep-19 06:28N 40°42' W 074°09'0 0.0
2017-Sep-19 05:58N 40°42' W 074°09'0 0.0
2017-Sep-19 05:28N 40°42' W 074°09'0 0.0
2017-Sep-19 04:58N 40°42' W 074°09'0 0.0
2017-Sep-19 04:28N 40°42' W 074°09'0 0.0
2017-Sep-19 03:58N 40°42' W 074°09'0 0.0
2017-Sep-19 03:28N 40°42' W 074°09'0 0.0
2017-Sep-19 02:58N 40°42' W 074°09'0 0.2
2017-Sep-19 02:30N 40°42' W 074°09'1 2.0
2017-Sep-19 02:00N 40°41' W 074°08'3 5.1
2017-Sep-19 01:31N 40°39' W 074°09'3 5.6
2017-Sep-19 01:00N 40°39' W 074°05'3 5.8
2017-Sep-19 00:30N 40°37' W 074°03'611.2
2017-Sep-19 00:01N 40°31' W 074°00'815.8
2017-Sep-18 23:31N 40°28' W 073°51'4 7.2
2017-Sep-18 22:59N 40°26' W 073°47'1 2.1
2017-Sep-18 22:30N 40°25' W 073°47'3 6.0
2017-Sep-18 22:00N 40°22' W 073°47'3 5.9
2017-Sep-18 21:30N 40°19' W 073°46'4 7.4
2017-Sep-18 20:57N 40°15' W 073°45'2 5.1
2017-Sep-18 20:30N 40°12' W 073°45'3 5.1
2017-Sep-18 20:01N 40°10' W 073°45'3 5.2
2017-Sep-18 19:30N 40°07' W 073°44'3 5.2
2017-Sep-18 19:00N 40°05' W 073°44'4 6.3
2017-Sep-18 18:25N 40°01' W 073°43'4 8.7
2017-Sep-18 18:00N 39°57' W 073°42'4 7.3
2017-Sep-18 17:30N 39°54' W 073°42'612.0
2017-Sep-18 17:00N 39°48' W 073°41'510.6
2017-Sep-18 16:30N 39°43' W 073°45'612.8
2017-Sep-18 16:00N 39°42' W 073°53'3 6.0
2017-Sep-18 15:28N 39°40' W 073°56'5 2.2
2017-Sep-18 13:22N 39°37' W 073°51'11 2.4
2017-Sep-18 08:46N 39°31' W 073°40'1 2.9
2017-Sep-18 08:16N 39°30' W 073°38'4 1.7
2017-Sep-18 06:08N 39°29' W 073°33'2 1.0
2017-Sep-18 04:20N 39°29' W 073°31'0 0.8
2017-Sep-18 03:47N 39°29' W 073°31'0 0.7
2017-Sep-18 03:29N 39°29' W 073°30'0 0.6
2017-Sep-18 02:59N 39°29' W 073°30'3 6.1
2017-Sep-18 02:27N 39°28' W 073°34'613.8
2017-Sep-18 01:59N 39°25' W 073°41'2 4.6
2017-Sep-18 01:30N 39°23' W 073°43'1 1.4
2017-Sep-18 01:00N 39°23' W 073°43'1 1.2
2017-Sep-18 00:30N 39°23' W 073°42'1 1.1
2017-Sep-18 00:00N 39°23' W 073°41'13 1.3
2017-Sep-17 14:09N 39°21' W 073°24'213.2
2017-Sep-17 14:00N 39°21' W 073°27'713.6
2017-Sep-17 13:30N 39°22' W 073°36'3 5.4
2017-Sep-17 12:58N 39°22' W 073°39'0 0.6
2017-Sep-17 12:28N 39°22' W 073°39'0 0.6
2017-Sep-17 11:55N 39°22' W 073°39'0 0.5
2017-Sep-17 11:28N 39°22' W 073°38'0 0.6
2017-Sep-17 10:46N 39°22' W 073°38'0 0.7
2017-Sep-17 10:25N 39°22' W 073°38'0 0.9
2017-Sep-17 09:52N 39°21' W 073°37'1 1.2
2017-Sep-17 09:13N 39°21' W 073°36'0 1.1
2017-Sep-17 08:58N 39°21' W 073°36'1 1.1
2017-Sep-17 08:28N 39°20' W 073°36'1 1.0
2017-Sep-17 07:58N 39°20' W 073°35'0 1.0
2017-Sep-17 07:28N 39°20' W 073°34'0 0.7
2017-Sep-17 06:55N 39°20' W 073°34'0 0.8
2017-Sep-17 06:28N 39°19' W 073°34'0 1.0
2017-Sep-17 05:58N 39°19' W 073°34'1 0.9
2017-Sep-17 05:25N 39°18' W 073°34'0 0.9
2017-Sep-17 04:58N 39°18' W 073°34'1 1.1
2017-Sep-17 04:22N 39°17' W 073°33'1 1.3
2017-Sep-17 03:52N 39°17' W 073°33'1 1.3
2017-Sep-17 03:28N 39°17' W 073°32'1 1.2
2017-Sep-17 02:55N 39°16' W 073°32'1 0.9
2017-Sep-17 02:22N 39°16' W 073°32'1 0.6
2017-Sep-17 01:31N 39°15' W 073°31'0 0.6
2017-Sep-17 01:28N 39°15' W 073°31'0 0.4
2017-Sep-17 00:22N 39°15' W 073°31'2 5.8
2017-Sep-17 00:01N 39°15' W 073°33'6 9.3
2017-Sep-16 23:24N 39°16' W 073°41'1 0.8
2017-Sep-16 22:30N 39°15' W 073°41'1 0.9
2017-Sep-16 21:45N 39°14' W 073°41'0 1.1
2017-Sep-16 21:24N 39°14' W 073°41'27 6.3
2017-Sep-16 17:06N 38°51' W 073°59'416.8
2017-Sep-16 16:51N 38°47' W 074°02'616.9
2017-Sep-16 16:30N 38°43' W 074°06'817.0
2017-Sep-16 16:00N 38°36' W 074°13'817.0
2017-Sep-16 15:30N 38°29' W 074°19'817.0
2017-Sep-16 15:01N 38°22' W 074°25'917.0
2017-Sep-16 14:30N 38°15' W 074°31'917.4
2017-Sep-16 14:00N 38°07' W 074°36'917.0
2017-Sep-16 13:30N 37°59' W 074°41'916.8
2017-Sep-16 13:00N 37°52' W 074°46'916.8
2017-Sep-16 12:28N 37°44' W 074°51'816.9
2017-Sep-16 12:00N 37°37' W 074°55'1017.1
2017-Sep-16 11:24N 37°28' W 075°01'2917.2
2017-Sep-16 09:42N 37°02' W 075°18'317.1
2017-Sep-16 09:30N 36°59' W 075°20'816.7
2017-Sep-16 09:00N 36°52' W 075°25'816.8
2017-Sep-16 08:30N 36°50' W 075°36'816.9
2017-Sep-16 08:00N 36°48' W 075°46'816.4
2017-Sep-16 07:30N 36°53' W 075°54'612.7
2017-Sep-16 07:00N 36°57' W 075°60'713.8
2017-Sep-16 06:30N 37°03' W 076°05'917.4
2017-Sep-16 05:58N 37°12' W 076°09'818.2
2017-Sep-16 05:31N 37°20' W 076°06'917.7
2017-Sep-16 05:00N 37°28' W 076°04'815.9
2017-Sep-16 04:30N 37°36' W 076°05'917.5
2017-Sep-16 04:00N 37°43' W 076°12'1017.7
2017-Sep-16 03:28N 37°53' W 076°10'817.2
2017-Sep-16 03:00N 38°00' W 076°13'1217.4
2017-Sep-16 02:19N 38°12' W 076°15'2517.3
2017-Sep-16 00:51N 38°36' W 076°26'717.6
2017-Sep-16 00:27N 38°43' W 076°26'818.1
2017-Sep-16 00:00N 38°51' W 076°24'917.1
2017-Sep-15 23:30N 38°60' W 076°23'714.3
2017-Sep-15 23:00N 39°07' W 076°24'612.5
2017-Sep-15 22:30N 39°12' W 076°29'510.6
2017-Sep-15 22:00N 39°15' W 076°34'1 2.9
2017-Sep-15 21:30N 39°16' W 076°36'0 0.0
2017-Sep-15 21:00N 39°16' W 076°36'0 0.0
2017-Sep-15 20:30N 39°16' W 076°36'0 0.0
2017-Sep-15 20:00N 39°16' W 076°36'0 0.0
2017-Sep-15 19:30N 39°16' W 076°36'0 0.0
2017-Sep-15 19:00N 39°16' W 076°36'0 0.0
2017-Sep-15 18:30N 39°16' W 076°36'0 0.0
2017-Sep-15 18:00N 39°16' W 076°36'0 0.0
2017-Sep-15 17:30N 39°16' W 076°36'0 0.0
2017-Sep-15 17:00N 39°16' W 076°36'0 0.0
2017-Sep-15 16:30N 39°16' W 076°36'0 0.0
2017-Sep-15 16:00N 39°16' W 076°36'0 0.0
2017-Sep-15 15:30N 39°16' W 076°36'0 0.0
2017-Sep-15 15:00N 39°16' W 076°36'0 0.0
2017-Sep-15 14:30N 39°16' W 076°36'0 0.0
2017-Sep-15 14:00N 39°16' W 076°36'0 0.0
2017-Sep-15 13:30N 39°16' W 076°36'0 0.0
2017-Sep-15 13:00N 39°16' W 076°36'0 0.0
2017-Sep-15 12:30N 39°16' W 076°36'0 0.0
2017-Sep-15 12:00N 39°16' W 076°36'0 0.0
2017-Sep-15 11:31N 39°16' W 076°36'0 0.0
2017-Sep-15 11:00N 39°16' W 076°36'0 0.0
2017-Sep-15 10:30N 39°16' W 076°36'0 0.0
2017-Sep-15 10:00N 39°16' W 076°36'0 0.0
2017-Sep-15 09:30N 39°16' W 076°36'0 0.0
2017-Sep-15 09:00N 39°16' W 076°36'0 0.0
2017-Sep-15 08:30N 39°16' W 076°36'0 0.0
2017-Sep-15 08:00N 39°16' W 076°36'0 0.0
2017-Sep-15 07:31N 39°16' W 076°36'0 0.0
2017-Sep-15 07:01N 39°16' W 076°36'0 0.0
2017-Sep-15 06:30N 39°16' W 076°36'0 0.0
2017-Sep-15 06:00N 39°16' W 076°36'0 0.0
2017-Sep-15 05:30N 39°16' W 076°36'0 0.0
2017-Sep-15 05:00N 39°16' W 076°36'0 0.0
2017-Sep-15 04:30N 39°16' W 076°36'0 0.0
2017-Sep-15 04:00N 39°16' W 076°36'0 0.0
2017-Sep-15 03:30N 39°16' W 076°36'0 0.0
2017-Sep-15 03:00N 39°16' W 076°36'0 0.0
2017-Sep-15 02:30N 39°16' W 076°36'0 0.0
2017-Sep-15 02:00N 39°16' W 076°36'0 0.0
2017-Sep-15 01:30N 39°16' W 076°36'0 0.0
2017-Sep-15 01:00N 39°16' W 076°36'0 0.0
2017-Sep-15 00:30N 39°16' W 076°36'0 0.0
2017-Sep-15 00:00N 39°16' W 076°36'0 0.0
2017-Sep-14 23:30N 39°16' W 076°36'0 0.0
2017-Sep-14 23:00N 39°16' W 076°36'0 0.0
2017-Sep-14 22:30N 39°16' W 076°36'0 0.0
2017-Sep-14 22:00N 39°16' W 076°36'0 0.0
2017-Sep-14 21:30N 39°16' W 076°36'0 0.0
2017-Sep-14 21:00N 39°16' W 076°36'0 0.0
2017-Sep-14 20:30N 39°16' W 076°36'0 0.0
2017-Sep-14 20:00N 39°16' W 076°36'0 0.0
2017-Sep-14 19:30N 39°16' W 076°36'0 0.0
2017-Sep-14 19:00N 39°16' W 076°36'0 0.0
2017-Sep-14 18:30N 39°16' W 076°36'0 0.0
2017-Sep-14 18:00N 39°16' W 076°36'0 0.0
2017-Sep-14 17:30N 39°16' W 076°36'0 0.0
2017-Sep-14 17:00N 39°16' W 076°36'0 0.0
2017-Sep-14 16:30N 39°16' W 076°36'0 0.0
2017-Sep-14 16:00N 39°16' W 076°36'0 0.0
2017-Sep-14 15:30N 39°16' W 076°36'0 0.0
2017-Sep-14 15:00N 39°16' W 076°36'0 0.0
2017-Sep-14 14:30N 39°16' W 076°36'0 0.0
2017-Sep-14 14:00N 39°16' W 076°36'0 0.0
2017-Sep-14 13:30N 39°16' W 076°36'0 0.0
2017-Sep-14 13:00N 39°16' W 076°36'0 0.0
2017-Sep-14 12:30N 39°16' W 076°36'0 0.0
2017-Sep-14 12:00N 39°16' W 076°36'0 0.0
2017-Sep-14 11:30N 39°16' W 076°36'0 0.0
2017-Sep-14 11:00N 39°16' W 076°36'0 0.0
2017-Sep-14 10:30N 39°16' W 076°36'0 0.0
2017-Sep-14 10:00N 39°16' W 076°36'0 0.0
2017-Sep-14 09:30N 39°16' W 076°36'0 0.0
2017-Sep-14 09:00N 39°16' W 076°36'0 0.0
2017-Sep-14 08:30N 39°16' W 076°36'0 0.0
2017-Sep-14 08:00N 39°16' W 076°36'0 0.0
2017-Sep-14 07:30N 39°16' W 076°36'0 0.0
2017-Sep-14 07:00N 39°16' W 076°36'0 0.0
2017-Sep-14 06:30N 39°16' W 076°36'0 0.0
2017-Sep-14 06:00N 39°16' W 076°36'0 0.0
2017-Sep-14 05:30N 39°16' W 076°36'0 0.0
2017-Sep-14 05:00N 39°16' W 076°36'0 0.0
2017-Sep-14 04:30N 39°16' W 076°36'0 0.0
2017-Sep-14 04:00N 39°16' W 076°36'0 0.0
2017-Sep-14 03:30N 39°16' W 076°36'0 0.0
2017-Sep-14 03:00N 39°16' W 076°36'0 0.0
2017-Sep-14 02:30N 39°16' W 076°36'0 0.0
2017-Sep-14 02:00N 39°16' W 076°36'0 0.0
2017-Sep-14 01:30N 39°16' W 076°36'0 0.0
2017-Sep-14 01:00N 39°16' W 076°36'0 0.0
2017-Sep-14 00:30N 39°16' W 076°36'0 0.0
2017-Sep-14 00:00N 39°16' W 076°36'0 0.0
2017-Sep-13 23:30N 39°16' W 076°36'0 0.0
2017-Sep-13 23:00N 39°16' W 076°36'0 0.0
2017-Sep-13 22:30N 39°16' W 076°36'0 0.0
2017-Sep-13 22:00N 39°16' W 076°36'0 0.2
2017-Sep-13 21:31N 39°16' W 076°36'1 1.9
2017-Sep-13 21:01N 39°15' W 076°34'0 0.4
2017-Sep-13 20:30N 39°15' W 076°35'0 0.0
2017-Sep-13 20:00N 39°15' W 076°35'0 0.0
2017-Sep-13 19:30N 39°15' W 076°35'0 0.0
2017-Sep-13 19:00N 39°15' W 076°35'0 0.0
2017-Sep-13 18:30N 39°15' W 076°35'0 0.0
2017-Sep-13 18:00N 39°15' W 076°35'0 0.0
2017-Sep-13 17:30N 39°15' W 076°35'0 0.0
2017-Sep-13 17:00N 39°15' W 076°35'0 0.0
2017-Sep-13 16:30N 39°15' W 076°35'0 0.0
2017-Sep-13 15:57N 39°15' W 076°35'0 0.0
2017-Sep-13 15:30N 39°15' W 076°35'0 0.0
2017-Sep-13 15:00N 39°15' W 076°35'0 0.0
2017-Sep-13 14:30N 39°15' W 076°35'0 0.0
2017-Sep-13 14:00N 39°15' W 076°35'0 0.0
2017-Sep-13 13:30N 39°15' W 076°35'0 0.0
2017-Sep-13 13:00N 39°15' W 076°35'0 0.0
2017-Sep-13 12:30N 39°15' W 076°35'0 0.0
2017-Sep-13 12:00N 39°15' W 076°35'0 0.0
2017-Sep-13 11:30N 39°15' W 076°35'0 0.0
2017-Sep-13 11:00N 39°15' W 076°35'0 0.0
2017-Sep-13 10:30N 39°15' W 076°35'0 0.0
2017-Sep-13 10:00N 39°15' W 076°35'0 0.0
2017-Sep-13 09:30N 39°15' W 076°35'0 0.0
2017-Sep-13 09:00N 39°15' W 076°35'0 0.0
2017-Sep-13 08:30N 39°15' W 076°35'0 0.0
2017-Sep-13 08:00N 39°15' W 076°35'0 0.0
2017-Sep-13 07:30N 39°15' W 076°35'0 0.0
2017-Sep-13 07:00N 39°15' W 076°35'0 0.0
2017-Sep-13 06:30N 39°15' W 076°35'0 0.0
2017-Sep-13 06:00N 39°15' W 076°35'0 0.0
2017-Sep-13 05:30N 39°15' W 076°35'0 0.0
2017-Sep-13 05:00N 39°15' W 076°35'0 0.0
2017-Sep-13 04:30N 39°15' W 076°35'0 0.0
2017-Sep-13 04:00N 39°15' W 076°35'0 0.0
2017-Sep-13 03:30N 39°15' W 076°35'0 0.0
2017-Sep-13 03:00N 39°15' W 076°35'0 0.0
2017-Sep-13 02:30N 39°15' W 076°35'0 0.0
2017-Sep-13 02:00N 39°15' W 076°35'0 0.0
2017-Sep-13 01:30N 39°15' W 076°35'0 0.0
2017-Sep-13 01:00N 39°15' W 076°35'0 0.0
2017-Sep-13 00:30N 39°15' W 076°35'0 0.0
2017-Sep-13 00:00N 39°15' W 076°35'0 0.0
2017-Sep-12 23:30N 39°15' W 076°35'0 0.0
2017-Sep-12 23:00N 39°15' W 076°35'0 0.0
2017-Sep-12 22:30N 39°15' W 076°35'0 0.0
2017-Sep-12 22:00N 39°15' W 076°35'0 0.0
2017-Sep-12 21:30N 39°15' W 076°35'1 2.4
2017-Sep-12 21:00N 39°15' W 076°33'0 0.4
2017-Sep-12 20:30N 39°15' W 076°33'0 0.0
2017-Sep-12 20:00N 39°15' W 076°33'0 0.0
2017-Sep-12 19:30N 39°15' W 076°33'0 0.0
2017-Sep-12 19:00N 39°15' W 076°33'0 0.0
2017-Sep-12 18:30N 39°15' W 076°33'0 0.0
2017-Sep-12 18:00N 39°15' W 076°33'0 0.0
2017-Sep-12 17:30N 39°15' W 076°33'0 0.0
2017-Sep-12 17:00N 39°15' W 076°33'0 0.0
2017-Sep-12 16:30N 39°15' W 076°33'0 0.0
2017-Sep-12 16:00N 39°15' W 076°33'0 0.1
2017-Sep-12 15:30N 39°15' W 076°33'0 0.0
2017-Sep-12 15:00N 39°15' W 076°33'0 0.0
2017-Sep-12 14:30N 39°15' W 076°33'0 0.0
2017-Sep-12 14:00N 39°15' W 076°33'0 0.0
2017-Sep-12 13:30N 39°15' W 076°33'0 0.0
2017-Sep-12 13:00N 39°15' W 076°33'0 0.0
2017-Sep-12 12:30N 39°15' W 076°33'0 0.0
2017-Sep-12 12:00N 39°15' W 076°33'0 0.0
2017-Sep-12 11:30N 39°15' W 076°33'0 0.0
2017-Sep-12 11:00N 39°15' W 076°33'0 0.0
2017-Sep-12 10:30N 39°15' W 076°33'0 0.0
2017-Sep-12 10:00N 39°15' W 076°33'0 0.0
2017-Sep-12 09:30N 39°15' W 076°33'0 0.0
2017-Sep-12 09:00N 39°15' W 076°33'0 0.0
2017-Sep-12 08:30N 39°15' W 076°33'0 0.0
2017-Sep-12 08:00N 39°15' W 076°33'0 0.0
2017-Sep-12 07:30N 39°15' W 076°33'0 0.0
2017-Sep-12 07:00N 39°15' W 076°33'0 0.0
2017-Sep-12 06:30N 39°15' W 076°33'0 0.0
2017-Sep-12 06:00N 39°15' W 076°33'0 0.0
2017-Sep-12 05:30N 39°15' W 076°33'0 0.0
2017-Sep-12 05:01N 39°15' W 076°33'1 2.1
2017-Sep-12 04:30N 39°14' W 076°32'4 8.0
2017-Sep-12 04:01N 39°11' W 076°28'612.3
2017-Sep-12 03:30N 39°09' W 076°21'611.6
2017-Sep-12 03:00N 39°13' W 076°15'612.0
2017-Sep-12 02:30N 39°19' W 076°13'612.0
2017-Sep-12 02:00N 39°22' W 076°07'612.7
2017-Sep-12 01:30N 39°26' W 076°00'510.8
2017-Sep-12 01:00N 39°30' W 075°55'4 7.0
2017-Sep-12 00:31N 39°32' W 075°52'3 6.7
2017-Sep-12 00:01N 39°32' W 075°47'  
Track history (hours):
 
Tides and Currents Weather Stations Pressure Air Temp Water Temp Dewpoint Dewpoint Depression Visibility Wind Speed Wind Dir Waves Ship Positions

Grand.pioneer

Last reported at 2017-Sep-21 23:37 UTC. Time now 2017-Sep-25 00:37 UTC.
Position N 42°09' W 069°56'.

Length 200 m; draft 8.5 m.

Type: Cargo ship. MMSI: 352935000.

Date/timePositionNaut miles runAvg speedWind from/ knotsBaromVisibWave heightAir tempDewpointWater temp
2017-Sep-21 23:37N 42°09' W 069°56'2 9.6
2017-Sep-21 23:25N 42°10' W 069°57'410.2
2017-Sep-21 23:00N 42°14' W 069°60'5 9.8
2017-Sep-21 22:30N 42°17' W 070°05'611.2
2017-Sep-21 22:00N 42°17' W 070°13'612.5
2017-Sep-21 21:30N 42°18' W 070°21'612.3
2017-Sep-21 21:00N 42°19' W 070°29'612.8
2017-Sep-21 20:30N 42°19' W 070°38'713.3
2017-Sep-21 20:00N 42°22' W 070°46'5 9.8
2017-Sep-21 19:30N 42°25' W 070°52'3 6.4
2017-Sep-21 19:00N 42°22' W 070°55'5 9.8
2017-Sep-21 18:31N 42°21' W 071°01'3 6.2
2017-Sep-21 18:00N 42°23' W 071°03'0 0.1
2017-Sep-21 17:28N 42°23' W 071°03'0 0.0
2017-Sep-21 16:58N 42°23' W 071°03'0 0.0
2017-Sep-21 16:29N 42°23' W 071°03'0 0.0
2017-Sep-21 15:59N 42°23' W 071°03'0 0.0
2017-Sep-21 15:28N 42°23' W 071°03'0 0.0
2017-Sep-21 14:59N 42°23' W 071°03'0 0.0
2017-Sep-21 14:29N 42°23' W 071°03'0 0.0
2017-Sep-21 13:58N 42°23' W 071°03'0 0.0
2017-Sep-21 13:29N 42°23' W 071°03'0 0.0
2017-Sep-21 12:59N 42°23' W 071°03'0 0.0
2017-Sep-21 12:29N 42°23' W 071°03'0 0.0
2017-Sep-21 11:59N 42°23' W 071°03'0 0.0
2017-Sep-21 11:28N 42°23' W 071°03'0 0.0
2017-Sep-21 10:58N 42°23' W 071°03'0 0.0
2017-Sep-21 10:30N 42°23' W 071°03'0 0.2
2017-Sep-21 10:01N 42°23' W 071°03'3 5.2
2017-Sep-21 09:31N 42°21' W 071°01'4 7.9
2017-Sep-21 09:00N 42°21' W 070°56'5 9.3
2017-Sep-21 08:30N 42°23' W 070°51'5 9.5
2017-Sep-21 08:00N 42°23' W 070°44'510.4
2017-Sep-21 07:30N 42°22' W 070°37'4 7.2
2017-Sep-21 07:00N 42°22' W 070°32'3 6.8
2017-Sep-21 06:30N 42°21' W 070°28'4 7.4
2017-Sep-21 06:00N 42°21' W 070°23'3 6.0
2017-Sep-21 05:30N 42°21' W 070°19'2 4.5
2017-Sep-21 05:00N 42°21' W 070°16'3 6.4
2017-Sep-21 04:30N 42°20' W 070°11'4 7.1
2017-Sep-21 04:00N 42°20' W 070°07'5 9.7
2017-Sep-21 03:30N 42°19' W 070°00'199 7.8
2017-Sep-20 01:47N 40°25' W 073°39'513.9
2017-Sep-20 01:27N 40°26' W 073°45'4 8.6
2017-Sep-20 01:00N 40°27' W 073°50'713.5
2017-Sep-20 00:30N 40°30' W 073°57'713.3
2017-Sep-20 00:01N 40°36' W 074°02'4 8.8
2017-Sep-19 23:31N 40°39' W 074°06'2 3.8
2017-Sep-19 23:00N 40°40' W 074°08'2 3.3
2017-Sep-19 22:31N 40°42' W 074°09'0 0.0
2017-Sep-19 21:58N 40°42' W 074°09'0 0.0
2017-Sep-19 21:28N 40°42' W 074°09'0 0.0
2017-Sep-19 20:58N 40°42' W 074°09'0 0.0
2017-Sep-19 20:28N 40°42' W 074°09'0 0.0
2017-Sep-19 19:58N 40°42' W 074°09'0 0.0
2017-Sep-19 19:28N 40°42' W 074°09'0 0.0
2017-Sep-19 18:58N 40°42' W 074°09'0 0.0
2017-Sep-19 18:28N 40°42' W 074°09'0 0.0
2017-Sep-19 17:58N 40°42' W 074°09'0 0.0
2017-Sep-19 17:28N 40°42' W 074°09'0 0.0
2017-Sep-19 16:58N 40°42' W 074°09'0 0.0
2017-Sep-19 16:25N 40°42' W 074°09'0 0.0
2017-Sep-19 15:58N 40°42' W 074°09'0 0.0
2017-Sep-19 15:28N 40°42' W 074°09'0 0.0
2017-Sep-19 14:58N 40°42' W 074°09'0 0.0
2017-Sep-19 14:28N 40°42' W 074°09'0 0.0
2017-Sep-19 13:58N 40°42' W 074°09'0 0.0
2017-Sep-19 13:28N 40°42' W 074°09'0 0.0
2017-Sep-19 12:58N 40°42' W 074°09'0 0.0
2017-Sep-19 12:28N 40°42' W 074°09'0 0.0
2017-Sep-19 11:58N 40°42' W 074°09'0 0.0
2017-Sep-19 11:28N 40°42' W 074°09'0 0.0
2017-Sep-19 10:58N 40°42' W 074°09'0 0.0
2017-Sep-19 10:28N 40°42' W 074°09'0 0.0
2017-Sep-19 09:58N 40°42' W 074°09'0 0.0
2017-Sep-19 09:28N 40°42' W 074°09'0 0.0
2017-Sep-19 08:58N 40°42' W 074°09'0 0.0
2017-Sep-19 08:28N 40°42' W 074°09'0 0.0
2017-Sep-19 07:58N 40°42' W 074°09'0 0.0
2017-Sep-19 07:28N 40°42' W 074°09'0 0.0
2017-Sep-19 06:58N 40°42' W 074°09'0 0.0
2017-Sep-19 06:28N 40°42' W 074°09'0 0.0
2017-Sep-19 05:58N 40°42' W 074°09'0 0.0
2017-Sep-19 05:28N 40°42' W 074°09'0 0.0
2017-Sep-19 04:58N 40°42' W 074°09'0 0.0
2017-Sep-19 04:28N 40°42' W 074°09'0 0.0
2017-Sep-19 03:58N 40°42' W 074°09'0 0.0
2017-Sep-19 03:28N 40°42' W 074°09'0 0.0
2017-Sep-19 02:58N 40°42' W 074°09'0 0.2
2017-Sep-19 02:30N 40°42' W 074°09'1 2.0
2017-Sep-19 02:00N 40°41' W 074°08'3 5.1
2017-Sep-19 01:31N 40°39' W 074°09'3 5.6
2017-Sep-19 01:00N 40°39' W 074°05'3 5.8
2017-Sep-19 00:30N 40°37' W 074°03'611.2
2017-Sep-19 00:01N 40°31' W 074°00'815.8
2017-Sep-18 23:31N 40°28' W 073°51'4 7.2
2017-Sep-18 22:59N 40°26' W 073°47'1 2.1
2017-Sep-18 22:30N 40°25' W 073°47'3 6.0
2017-Sep-18 22:00N 40°22' W 073°47'3 5.9
2017-Sep-18 21:30N 40°19' W 073°46'4 7.4
2017-Sep-18 20:57N 40°15' W 073°45'2 5.1
2017-Sep-18 20:30N 40°12' W 073°45'3 5.1
2017-Sep-18 20:01N 40°10' W 073°45'3 5.2
2017-Sep-18 19:30N 40°07' W 073°44'3 5.2
2017-Sep-18 19:00N 40°05' W 073°44'4 6.3
2017-Sep-18 18:25N 40°01' W 073°43'4 8.7
2017-Sep-18 18:00N 39°57' W 073°42'4 7.3
2017-Sep-18 17:30N 39°54' W 073°42'612.0
2017-Sep-18 17:00N 39°48' W 073°41'510.6
2017-Sep-18 16:30N 39°43' W 073°45'612.8
2017-Sep-18 16:00N 39°42' W 073°53'3 6.0
2017-Sep-18 15:28N 39°40' W 073°56'5 2.2
2017-Sep-18 13:22N 39°37' W 073°51'11 2.4
2017-Sep-18 08:46N 39°31' W 073°40'1 2.9
2017-Sep-18 08:16N 39°30' W 073°38'4 1.7
2017-Sep-18 06:08N 39°29' W 073°33'2 1.0
2017-Sep-18 04:20N 39°29' W 073°31'0 0.8
2017-Sep-18 03:47N 39°29' W 073°31'0 0.7
2017-Sep-18 03:29N 39°29' W 073°30'0 0.6
2017-Sep-18 02:59N 39°29' W 073°30'3 6.1
2017-Sep-18 02:27N 39°28' W 073°34'613.8
2017-Sep-18 01:59N 39°25' W 073°41'2 4.6
2017-Sep-18 01:30N 39°23' W 073°43'1 1.4
2017-Sep-18 01:00N 39°23' W 073°43'1 1.2
2017-Sep-18 00:30N 39°23' W 073°42'1 1.1
2017-Sep-18 00:00N 39°23' W 073°41'13 1.3
2017-Sep-17 14:09N 39°21' W 073°24'213.2
2017-Sep-17 14:00N 39°21' W 073°27'713.6
2017-Sep-17 13:30N 39°22' W 073°36'3 5.4
2017-Sep-17 12:58N 39°22' W 073°39'0 0.6
2017-Sep-17 12:28N 39°22' W 073°39'0 0.6
2017-Sep-17 11:55N 39°22' W 073°39'0 0.5
2017-Sep-17 11:28N 39°22' W 073°38'0 0.6
2017-Sep-17 10:46N 39°22' W 073°38'0 0.7
2017-Sep-17 10:25N 39°22' W 073°38'0 0.9
2017-Sep-17 09:52N 39°21' W 073°37'1 1.2
2017-Sep-17 09:13N 39°21' W 073°36'0 1.1
2017-Sep-17 08:58N 39°21' W 073°36'1 1.1
2017-Sep-17 08:28N 39°20' W 073°36'1 1.0
2017-Sep-17 07:58N 39°20' W 073°35'0 1.0
2017-Sep-17 07:28N 39°20' W 073°34'0 0.7
2017-Sep-17 06:55N 39°20' W 073°34'0 0.8
2017-Sep-17 06:28N 39°19' W 073°34'0 1.0
2017-Sep-17 05:58N 39°19' W 073°34'1 0.9
2017-Sep-17 05:25N 39°18' W 073°34'0 0.9
2017-Sep-17 04:58N 39°18' W 073°34'1 1.1
2017-Sep-17 04:22N 39°17' W 073°33'1 1.3
2017-Sep-17 03:52N 39°17' W 073°33'1 1.3
2017-Sep-17 03:28N 39°17' W 073°32'1 1.2
2017-Sep-17 02:55N 39°16' W 073°32'1 0.9
2017-Sep-17 02:22N 39°16' W 073°32'1 0.6
2017-Sep-17 01:31N 39°15' W 073°31'0 0.6
2017-Sep-17 01:28N 39°15' W 073°31'0 0.4
2017-Sep-17 00:22N 39°15' W 073°31'2 5.8
2017-Sep-17 00:01N 39°15' W 073°33'6 9.3
2017-Sep-16 23:24N 39°16' W 073°41'1 0.8
2017-Sep-16 22:30N 39°15' W 073°41'1 0.9
2017-Sep-16 21:45N 39°14' W 073°41'0 1.1
2017-Sep-16 21:24N 39°14' W 073°41'27 6.3
2017-Sep-16 17:06N 38°51' W 073°59'416.8
2017-Sep-16 16:51N 38°47' W 074°02'616.9
2017-Sep-16 16:30N 38°43' W 074°06'817.0
2017-Sep-16 16:00N 38°36' W 074°13'817.0
2017-Sep-16 15:30N 38°29' W 074°19'817.0
2017-Sep-16 15:01N 38°22' W 074°25'917.0
2017-Sep-16 14:30N 38°15' W 074°31'917.4
2017-Sep-16 14:00N 38°07' W 074°36'917.0
2017-Sep-16 13:30N 37°59' W 074°41'916.8
2017-Sep-16 13:00N 37°52' W 074°46'916.8
2017-Sep-16 12:28N 37°44' W 074°51'816.9
2017-Sep-16 12:00N 37°37' W 074°55'1017.1
2017-Sep-16 11:24N 37°28' W 075°01'2917.2
2017-Sep-16 09:42N 37°02' W 075°18'317.1
2017-Sep-16 09:30N 36°59' W 075°20'816.7
2017-Sep-16 09:00N 36°52' W 075°25'816.8
2017-Sep-16 08:30N 36°50' W 075°36'816.9
2017-Sep-16 08:00N 36°48' W 075°46'816.4
2017-Sep-16 07:30N 36°53' W 075°54'612.7
2017-Sep-16 07:00N 36°57' W 075°60'713.8
2017-Sep-16 06:30N 37°03' W 076°05'917.4
2017-Sep-16 05:58N 37°12' W 076°09'818.2
2017-Sep-16 05:31N 37°20' W 076°06'917.7
2017-Sep-16 05:00N 37°28' W 076°04'815.9
2017-Sep-16 04:30N 37°36' W 076°05'917.5
2017-Sep-16 04:00N 37°43' W 076°12'1017.7
2017-Sep-16 03:28N 37°53' W 076°10'817.2
2017-Sep-16 03:00N 38°00' W 076°13'1217.4
2017-Sep-16 02:19N 38°12' W 076°15'2517.3
2017-Sep-16 00:51N 38°36' W 076°26'717.6
2017-Sep-16 00:27N 38°43' W 076°26'818.1
2017-Sep-16 00:00N 38°51' W 076°24'917.1
2017-Sep-15 23:30N 38°60' W 076°23'714.3
2017-Sep-15 23:00N 39°07' W 076°24'612.5
2017-Sep-15 22:30N 39°12' W 076°29'510.6
2017-Sep-15 22:00N 39°15' W 076°34'1 2.9
2017-Sep-15 21:30N 39°16' W 076°36'0 0.0
2017-Sep-15 21:00N 39°16' W 076°36'0 0.0
2017-Sep-15 20:30N 39°16' W 076°36'0 0.0
2017-Sep-15 20:00N 39°16' W 076°36'0 0.0
2017-Sep-15 19:30N 39°16' W 076°36'0 0.0
2017-Sep-15 19:00N 39°16' W 076°36'0 0.0
2017-Sep-15 18:30N 39°16' W 076°36'0 0.0
2017-Sep-15 18:00N 39°16' W 076°36'0 0.0
2017-Sep-15 17:30N 39°16' W 076°36'0 0.0
2017-Sep-15 17:00N 39°16' W 076°36'0 0.0
2017-Sep-15 16:30N 39°16' W 076°36'0 0.0
2017-Sep-15 16:00N 39°16' W 076°36'0 0.0
2017-Sep-15 15:30N 39°16' W 076°36'0 0.0
2017-Sep-15 15:00N 39°16' W 076°36'0 0.0
2017-Sep-15 14:30N 39°16' W 076°36'0 0.0
2017-Sep-15 14:00N 39°16' W 076°36'0 0.0
2017-Sep-15 13:30N 39°16' W 076°36'0 0.0
2017-Sep-15 13:00N 39°16' W 076°36'0 0.0
2017-Sep-15 12:30N 39°16' W 076°36'0 0.0
2017-Sep-15 12:00N 39°16' W 076°36'0 0.0
2017-Sep-15 11:31N 39°16' W 076°36'0 0.0
2017-Sep-15 11:00N 39°16' W 076°36'0 0.0
2017-Sep-15 10:30N 39°16' W 076°36'0 0.0
2017-Sep-15 10:00N 39°16' W 076°36'0 0.0
2017-Sep-15 09:30N 39°16' W 076°36'0 0.0
2017-Sep-15 09:00N 39°16' W 076°36'0 0.0
2017-Sep-15 08:30N 39°16' W 076°36'0 0.0
2017-Sep-15 08:00N 39°16' W 076°36'0 0.0
2017-Sep-15 07:31N 39°16' W 076°36'0 0.0
2017-Sep-15 07:01N 39°16' W 076°36'0 0.0
2017-Sep-15 06:30N 39°16' W 076°36'0 0.0
2017-Sep-15 06:00N 39°16' W 076°36'0 0.0
2017-Sep-15 05:30N 39°16' W 076°36'0 0.0
2017-Sep-15 05:00N 39°16' W 076°36'0 0.0
2017-Sep-15 04:30N 39°16' W 076°36'0 0.0
2017-Sep-15 04:00N 39°16' W 076°36'0 0.0
2017-Sep-15 03:30N 39°16' W 076°36'0 0.0
2017-Sep-15 03:00N 39°16' W 076°36'0 0.0
2017-Sep-15 02:30N 39°16' W 076°36'0 0.0
2017-Sep-15 02:00N 39°16' W 076°36'0 0.0
2017-Sep-15 01:30N 39°16' W 076°36'0 0.0
2017-Sep-15 01:00N 39°16' W 076°36'0 0.0
2017-Sep-15 00:30N 39°16' W 076°36'0 0.0
2017-Sep-15 00:00N 39°16' W 076°36'0 0.0
2017-Sep-14 23:30N 39°16' W 076°36'0 0.0
2017-Sep-14 23:00N 39°16' W 076°36'0 0.0
2017-Sep-14 22:30N 39°16' W 076°36'0 0.0
2017-Sep-14 22:00N 39°16' W 076°36'0 0.0
2017-Sep-14 21:30N 39°16' W 076°36'0 0.0
2017-Sep-14 21:00N 39°16' W 076°36'0 0.0
2017-Sep-14 20:30N 39°16' W 076°36'0 0.0
2017-Sep-14 20:00N 39°16' W 076°36'0 0.0
2017-Sep-14 19:30N 39°16' W 076°36'0 0.0
2017-Sep-14 19:00N 39°16' W 076°36'0 0.0
2017-Sep-14 18:30N 39°16' W 076°36'0 0.0
2017-Sep-14 18:00N 39°16' W 076°36'0 0.0
2017-Sep-14 17:30N 39°16' W 076°36'0 0.0
2017-Sep-14 17:00N 39°16' W 076°36'0 0.0
2017-Sep-14 16:30N 39°16' W 076°36'0 0.0
2017-Sep-14 16:00N 39°16' W 076°36'0 0.0
2017-Sep-14 15:30N 39°16' W 076°36'0 0.0
2017-Sep-14 15:00N 39°16' W 076°36'0 0.0
2017-Sep-14 14:30N 39°16' W 076°36'0 0.0
2017-Sep-14 14:00N 39°16' W 076°36'0 0.0
2017-Sep-14 13:30N 39°16' W 076°36'0 0.0
2017-Sep-14 13:00N 39°16' W 076°36'0 0.0
2017-Sep-14 12:30N 39°16' W 076°36'0 0.0
2017-Sep-14 12:00N 39°16' W 076°36'0 0.0
2017-Sep-14 11:30N 39°16' W 076°36'0 0.0
2017-Sep-14 11:00N 39°16' W 076°36'0 0.0
2017-Sep-14 10:30N 39°16' W 076°36'0 0.0
2017-Sep-14 10:00N 39°16' W 076°36'0 0.0
2017-Sep-14 09:30N 39°16' W 076°36'0 0.0
2017-Sep-14 09:00N 39°16' W 076°36'0 0.0
2017-Sep-14 08:30N 39°16' W 076°36'0 0.0
2017-Sep-14 08:00N 39°16' W 076°36'0 0.0
2017-Sep-14 07:30N 39°16' W 076°36'0 0.0
2017-Sep-14 07:00N 39°16' W 076°36'0 0.0
2017-Sep-14 06:30N 39°16' W 076°36'0 0.0
2017-Sep-14 06:00N 39°16' W 076°36'0 0.0
2017-Sep-14 05:30N 39°16' W 076°36'0 0.0
2017-Sep-14 05:00N 39°16' W 076°36'0 0.0
2017-Sep-14 04:30N 39°16' W 076°36'0 0.0
2017-Sep-14 04:00N 39°16' W 076°36'0 0.0
2017-Sep-14 03:30N 39°16' W 076°36'0 0.0
2017-Sep-14 03:00N 39°16' W 076°36'0 0.0
2017-Sep-14 02:30N 39°16' W 076°36'0 0.0
2017-Sep-14 02:00N 39°16' W 076°36'0 0.0
2017-Sep-14 01:30N 39°16' W 076°36'0 0.0
2017-Sep-14 01:00N 39°16' W 076°36'0 0.0
2017-Sep-14 00:30N 39°16' W 076°36'0 0.0
2017-Sep-14 00:00N 39°16' W 076°36'0 0.0
2017-Sep-13 23:30N 39°16' W 076°36'0 0.0
2017-Sep-13 23:00N 39°16' W 076°36'0 0.0
2017-Sep-13 22:30N 39°16' W 076°36'0 0.0
2017-Sep-13 22:00N 39°16' W 076°36'0 0.2
2017-Sep-13 21:31N 39°16' W 076°36'1 1.9
2017-Sep-13 21:01N 39°15' W 076°34'0 0.4
2017-Sep-13 20:30N 39°15' W 076°35'0 0.0
2017-Sep-13 20:00N 39°15' W 076°35'0 0.0
2017-Sep-13 19:30N 39°15' W 076°35'0 0.0
2017-Sep-13 19:00N 39°15' W 076°35'0 0.0
2017-Sep-13 18:30N 39°15' W 076°35'0 0.0
2017-Sep-13 18:00N 39°15' W 076°35'0 0.0
2017-Sep-13 17:30N 39°15' W 076°35'0 0.0
2017-Sep-13 17:00N 39°15' W 076°35'0 0.0
2017-Sep-13 16:30N 39°15' W 076°35'0 0.0
2017-Sep-13 15:57N 39°15' W 076°35'0 0.0
2017-Sep-13 15:30N 39°15' W 076°35'0 0.0
2017-Sep-13 15:00N 39°15' W 076°35'0 0.0
2017-Sep-13 14:30N 39°15' W 076°35'0 0.0
2017-Sep-13 14:00N 39°15' W 076°35'0 0.0
2017-Sep-13 13:30N 39°15' W 076°35'0 0.0
2017-Sep-13 13:00N 39°15' W 076°35'0 0.0
2017-Sep-13 12:30N 39°15' W 076°35'0 0.0
2017-Sep-13 12:00N 39°15' W 076°35'0 0.0
2017-Sep-13 11:30N 39°15' W 076°35'0 0.0
2017-Sep-13 11:00N 39°15' W 076°35'0 0.0
2017-Sep-13 10:30N 39°15' W 076°35'0 0.0
2017-Sep-13 10:00N 39°15' W 076°35'0 0.0
2017-Sep-13 09:30N 39°15' W 076°35'0 0.0
2017-Sep-13 09:00N 39°15' W 076°35'0 0.0
2017-Sep-13 08:30N 39°15' W 076°35'0 0.0
2017-Sep-13 08:00N 39°15' W 076°35'0 0.0
2017-Sep-13 07:30N 39°15' W 076°35'0 0.0
2017-Sep-13 07:00N 39°15' W 076°35'0 0.0
2017-Sep-13 06:30N 39°15' W 076°35'0 0.0
2017-Sep-13 06:00N 39°15' W 076°35'0 0.0
2017-Sep-13 05:30N 39°15' W 076°35'0 0.0
2017-Sep-13 05:00N 39°15' W 076°35'0 0.0
2017-Sep-13 04:30N 39°15' W 076°35'0 0.0
2017-Sep-13 04:00N 39°15' W 076°35'0 0.0
2017-Sep-13 03:30N 39°15' W 076°35'0 0.0
2017-Sep-13 03:00N 39°15' W 076°35'0 0.0
2017-Sep-13 02:30N 39°15' W 076°35'0 0.0
2017-Sep-13 02:00N 39°15' W 076°35'0 0.0
2017-Sep-13 01:30N 39°15' W 076°35'0 0.0
2017-Sep-13 01:00N 39°15' W 076°35'0 0.0
2017-Sep-13 00:30N 39°15' W 076°35'0 0.0
2017-Sep-13 00:00N 39°15' W 076°35'0 0.0
2017-Sep-12 23:30N 39°15' W 076°35'0 0.0
2017-Sep-12 23:00N 39°15' W 076°35'0 0.0
2017-Sep-12 22:30N 39°15' W 076°35'0 0.0
2017-Sep-12 22:00N 39°15' W 076°35'0 0.0
2017-Sep-12 21:30N 39°15' W 076°35'1 2.4
2017-Sep-12 21:00N 39°15' W 076°33'0 0.4
2017-Sep-12 20:30N 39°15' W 076°33'0 0.0
2017-Sep-12 20:00N 39°15' W 076°33'0 0.0
2017-Sep-12 19:30N 39°15' W 076°33'0 0.0
2017-Sep-12 19:00N 39°15' W 076°33'0 0.0
2017-Sep-12 18:30N 39°15' W 076°33'0 0.0
2017-Sep-12 18:00N 39°15' W 076°33'0 0.0
2017-Sep-12 17:30N 39°15' W 076°33'0 0.0
2017-Sep-12 17:00N 39°15' W 076°33'0 0.0
2017-Sep-12 16:30N 39°15' W 076°33'0 0.0
2017-Sep-12 16:00N 39°15' W 076°33'0 0.1
2017-Sep-12 15:30N 39°15' W 076°33'0 0.0
2017-Sep-12 15:00N 39°15' W 076°33'0 0.0
2017-Sep-12 14:30N 39°15' W 076°33'0 0.0
2017-Sep-12 14:00N 39°15' W 076°33'0 0.0
2017-Sep-12 13:30N 39°15' W 076°33'0 0.0
2017-Sep-12 13:00N 39°15' W 076°33'0 0.0
2017-Sep-12 12:30N 39°15' W 076°33'0 0.0
2017-Sep-12 12:00N 39°15' W 076°33'0 0.0
2017-Sep-12 11:30N 39°15' W 076°33'0 0.0
2017-Sep-12 11:00N 39°15' W 076°33'0 0.0
2017-Sep-12 10:30N 39°15' W 076°33'0 0.0
2017-Sep-12 10:00N 39°15' W 076°33'0 0.0
2017-Sep-12 09:30N 39°15' W 076°33'0 0.0
2017-Sep-12 09:00N 39°15' W 076°33'0 0.0
2017-Sep-12 08:30N 39°15' W 076°33'0 0.0
2017-Sep-12 08:00N 39°15' W 076°33'0 0.0
2017-Sep-12 07:30N 39°15' W 076°33'0 0.0
2017-Sep-12 07:00N 39°15' W 076°33'0 0.0
2017-Sep-12 06:30N 39°15' W 076°33'0 0.0
2017-Sep-12 06:00N 39°15' W 076°33'0 0.0
2017-Sep-12 05:30N 39°15' W 076°33'0 0.0
2017-Sep-12 05:01N 39°15' W 076°33'1 2.1
2017-Sep-12 04:30N 39°14' W 076°32'4 8.0
2017-Sep-12 04:01N 39°11' W 076°28'612.3
2017-Sep-12 03:30N 39°09' W 076°21'611.6
2017-Sep-12 03:00N 39°13' W 076°15'612.0
2017-Sep-12 02:30N 39°19' W 076°13'612.0
2017-Sep-12 02:00N 39°22' W 076°07'612.7
2017-Sep-12 01:30N 39°26' W 076°00'510.8
2017-Sep-12 01:00N 39°30' W 075°55'4 7.0
2017-Sep-12 00:31N 39°32' W 075°52'3 6.7
2017-Sep-12 00:01N 39°32' W 075°47'  

Dump ship's entire track history